New City, Illinois
Current Conditions -  °F | °C
As of 9:52 PM on Monday 22 Dec 2014 (Local Time) from KSPI Reporting Station
Moderate Rain Moderate Rain  
Wind Chill: 43°   Ceiling: 500
Heat Index: 48°   Visibility: 7mi
Dew Point: 48°   Wind: 13mph
Humidity: 100%   Direction: 170°S
Pressure: 29.52"   Gusts: NA
Location:  39.7312°N, 89.5322°W
Report Text: KSPI 230352Z 17011KT 7SM RA BKN005 OVC010 09/09 A2952 RMK AO2 SLP999 P0006 T00890089
Loading
Personal Weather Stations






























Interactive Weather Map New forecast layout! Learn more

10-Day Weather Forecast

Advertisements
Track Severe Weather on mobile